Time;durP1;ratioP1;P1;durP2;ratioP2;P2;SDS_P1;SDS_P2;PMS_P1;PMS_P2;Temp;Humidity;BMP_temperature;BMP_pressure;BME280_temperature;BME280_humidity;BME280_pressure;Samples;Min_cycle;Max_cycle;Signal;HPM_P1;HPM_P2
2022/01/21 00:00:43;;;;;;;6.30;2.40;;;0.20;99.90;;;;;;5056721;28;20450;-74
2022/01/21 00:03:32;;;;;;;7.07;2.57;;;0.20;99.90;;;;;;5058298;28;20226;-77
2022/01/21 00:06:21;;;;;;;6.13;2.10;;;0.30;99.90;;;;;;5039879;28;20237;-76
2022/01/21 00:09:14;;;;;;;6.23;2.13;;;0.30;99.90;;;;;;5046026;28;20225;-76
2022/01/21 00:12:06;;;;;;;8.90;3.47;;;0.30;99.90;;;;;;5040035;28;20241;-76
2022/01/21 00:14:54;;;;;;;10.47;3.60;;;0.30;99.90;;;;;;5058637;28;20230;-78
2022/01/21 00:17:43;;;;;;;6.83;3.20;;;0.20;99.90;;;;;;5043667;28;20682;-77
2022/01/21 00:30:16;;;;;;;7.77;3.20;;;0.20;99.90;;;;;;5065916;28;20273;-72
2022/01/21 00:33:05;;;;;;;6.67;2.57;;;0.30;99.90;;;;;;5048073;28;20223;-74
2022/01/21 00:35:54;;;;;;;5.00;2.30;;;0.30;99.90;;;;;;5046683;28;20218;-71
2022/01/21 00:38:44;;;;;;;9.33;2.50;;;0.30;99.90;;;;;;5046003;28;20221;-74
2022/01/21 00:41:37;;;;;;;9.37;2.80;;;0.40;99.90;;;;;;5061053;28;20220;-74
2022/01/21 00:44:26;;;;;;;7.53;2.33;;;0.40;99.90;;;;;;5044269;28;20244;-72
2022/01/21 00:47:16;;;;;;;6.07;2.30;;;0.20;99.90;;;;;;5053408;28;20220;-76
2022/01/21 00:50:07;;;;;;;5.40;2.47;;;0.30;99.90;;;;;;5045325;28;20372;-76
2022/01/21 00:52:55;;;;;;;8.97;2.73;;;0.30;99.90;;;;;;5046002;28;20223;-77
2022/01/21 00:55:44;;;;;;;5.33;2.33;;;0.20;99.90;;;;;;5055008;28;20234;-77
2022/01/21 00:58:32;;;;;;;4.73;2.40;;;0.20;99.90;;;;;;5041225;28;20227;-77
2022/01/21 01:01:21;;;;;;;8.37;3.50;;;0.20;99.90;;;;;;5053750;28;20227;-75
2022/01/21 01:04:12;;;;;;;6.40;2.57;;;0.20;99.90;;;;;;5041918;28;20229;-75
2022/01/21 01:07:00;;;;;;;11.87;2.13;;;0.20;99.90;;;;;;5056770;28;20229;-75
2022/01/21 01:09:53;;;;;;;10.80;2.80;;;0.10;99.90;;;;;;5055420;28;20208;-74
2022/01/21 01:12:54;;;;;;;6.37;2.30;;;0.10;99.90;;;;;;5044438;28;20297;-75
2022/01/21 01:21:58;;;;;;;7.43;2.20;;;0.00;99.90;;;;;;5056100;28;20743;-76
2022/01/21 01:27:53;;;;;;;5.70;2.57;;;-0.10;99.90;;;;;;5042394;28;20220;-75
2022/01/21 01:30:42;;;;;;;8.80;2.20;;;-0.10;99.90;;;;;;5058320;28;20239;-78
2022/01/21 01:33:36;;;;;;;7.37;2.50;;;-0.10;99.90;;;;;;5043565;28;21225;-75
2022/01/21 01:36:25;;;;;;;6.80;1.97;;;0.00;99.90;;;;;;5030413;28;20712;-77
2022/01/21 01:39:28;;;;;;;5.33;2.27;;;0.00;99.90;;;;;;5055344;28;20358;-77
2022/01/21 01:42:46;;;;;;;11.37;2.37;;;-0.10;99.90;;;;;;5045655;28;20293;-77
2022/01/21 01:51:50;;;;;;;5.90;2.07;;;0.00;99.90;;;;;;5044339;28;20250;-74
2022/01/21 01:54:45;;;;;;;12.30;2.53;;;0.00;99.90;;;;;;5046429;28;20228;-76
2022/01/21 01:57:34;;;;;;;6.37;2.13;;;0.10;99.90;;;;;;5052225;28;20311;-77
2022/01/21 02:00:23;;;;;;;6.77;2.13;;;0.10;99.90;;;;;;5042634;28;20231;-75
2022/01/21 02:03:14;;;;;;;8.07;1.93;;;0.10;99.90;;;;;;5061370;28;20222;-76
2022/01/21 02:06:02;;;;;;;8.50;1.97;;;0.00;99.90;;;;;;5042418;28;20215;-76
2022/01/21 02:08:52;;;;;;;7.43;2.23;;;-0.10;99.90;;;;;;5050623;28;20902;-74
2022/01/21 02:11:42;;;;;;;4.50;1.90;;;0.00;99.90;;;;;;5060003;28;20311;-74
2022/01/21 02:14:34;;;;;;;5.77;2.10;;;0.00;99.90;;;;;;5052751;28;20353;-76
2022/01/21 02:23:36;;;;;;;7.93;2.30;;;0.00;99.90;;;;;;5058799;28;20347;-73
2022/01/21 02:26:25;;;;;;;6.77;1.93;;;0.10;99.90;;;;;;5058988;28;20225;-76
2022/01/21 02:29:25;;;;;;;5.03;2.13;;;0.10;99.90;;;;;;5051530;28;20220;-75
2022/01/21 02:32:15;;;;;;;7.17;2.00;;;0.10;99.90;;;;;;5044954;28;20227;-77
2022/01/21 02:35:03;;;;;;;8.03;2.50;;;0.00;99.90;;;;;;5044638;28;20212;-77
2022/01/21 02:37:53;;;;;;;12.70;3.03;;;0.10;99.90;;;;;;5064258;28;20233;-75
2022/01/21 02:40:43;;;;;;;7.07;2.30;;;-0.10;99.90;;;;;;5058473;28;20238;-78
2022/01/21 02:43:32;;;;;;;7.10;2.47;;;-0.30;99.90;;;;;;5045418;28;20583;-76
2022/01/21 02:46:22;;;;;;;7.97;2.20;;;-0.20;99.90;;;;;;5041182;28;20839;-76
2022/01/21 02:49:12;;;;;;;8.80;2.30;;;-0.30;99.90;;;;;;5041412;28;20218;-75
2022/01/21 02:52:03;;;;;;;6.07;2.20;;;-0.20;99.90;;;;;;5042587;28;20222;-75
2022/01/21 02:54:51;;;;;;;6.97;2.33;;;-0.20;99.90;;;;;;5043973;28;20757;-75
2022/01/21 02:57:41;;;;;;;5.93;2.13;;;-0.20;99.90;;;;;;5046582;28;20736;-75
2022/01/21 03:00:30;;;;;;;4.60;1.97;;;-0.20;99.90;;;;;;5059142;28;20297;-75
2022/01/21 03:03:19;;;;;;;8.97;1.83;;;-0.30;99.90;;;;;;5046503;28;20220;-76
2022/01/21 03:06:08;;;;;;;5.33;1.97;;;-0.30;99.90;;;;;;5043157;28;20226;-76
2022/01/21 03:08:59;;;;;;;5.37;2.00;;;-0.30;99.90;;;;;;5042348;28;20224;-75
2022/01/21 03:11:48;;;;;;;4.43;1.87;;;-0.20;99.90;;;;;;5052327;28;20232;-76
2022/01/21 03:14:37;;;;;;;5.63;1.93;;;-0.30;99.90;;;;;;5056272;28;20239;-74
2022/01/21 03:17:26;;;;;;;5.60;2.10;;;-0.40;99.90;;;;;;5040905;28;20241;-75
2022/01/21 03:20:15;;;;;;;4.53;1.90;;;-0.30;99.90;;;;;;5043386;28;20225;-75
2022/01/21 03:23:04;;;;;;;8.67;2.27;;;-0.50;99.90;;;;;;5043244;28;20343;-74
2022/01/21 03:25:53;;;;;;;8.23;2.00;;;-0.40;99.90;;;;;;5040362;28;20220;-76
2022/01/21 03:29:00;;;;;;;6.07;2.30;;;-0.40;99.90;;;;;;5046124;28;20265;-76
2022/01/21 03:31:53;;;;;;;7.83;2.23;;;-0.30;99.90;;;;;;5042041;28;20240;-75
2022/01/21 03:34:42;;;;;;;8.73;2.07;;;-0.40;99.90;;;;;;5040105;28;20361;-76
2022/01/21 03:37:31;;;;;;;5.90;2.30;;;-0.40;99.90;;;;;;5055462;28;20260;-77
2022/01/21 03:40:20;;;;;;;5.27;1.50;;;-0.30;99.90;;;;;;5039688;28;22251;-76
2022/01/21 03:43:11;;;;;;;4.73;1.70;;;-0.30;99.90;;;;;;5042314;28;20276;-75
2022/01/21 03:46:01;;;;;;;5.30;2.00;;;-0.20;99.90;;;;;;5042538;28;20234;-76
2022/01/21 03:48:52;;;;;;;5.97;2.00;;;-0.30;99.90;;;;;;5041598;28;20283;-76
2022/01/21 03:51:41;;;;;;;4.60;1.83;;;-0.20;99.90;;;;;;5038175;28;20867;-74
2022/01/21 03:54:30;;;;;;;5.50;2.00;;;-0.20;99.90;;;;;;5040808;28;20568;-75
2022/01/21 03:57:19;;;;;;;4.07;1.50;;;-0.20;99.90;;;;;;5042067;28;20832;-76
2022/01/21 04:00:11;;;;;;;2.73;1.63;;;-0.20;99.90;;;;;;5042776;28;20645;-74
2022/01/21 04:03:03;;;;;;;5.03;1.97;;;-0.10;99.90;;;;;;5060777;28;20230;-78
2022/01/21 04:05:54;;;;;;;6.13;1.90;;;-0.10;99.90;;;;;;5042881;28;20223;-75
2022/01/21 04:08:43;;;;;;;5.13;1.73;;;-0.20;99.90;;;;;;5036411;28;20223;-77
2022/01/21 04:11:32;;;;;;;5.60;1.70;;;-0.20;99.90;;;;;;5049163;28;20272;-76
2022/01/21 04:14:20;;;;;;;4.73;1.73;;;0.00;99.90;;;;;;5038753;28;20227;-73
2022/01/21 04:17:09;;;;;;;7.33;1.80;;;-0.30;99.90;;;;;;5052542;28;20758;-74
2022/01/21 04:19:58;;;;;;;4.77;1.40;;;-0.10;99.90;;;;;;5041446;28;20227;-74
2022/01/21 04:22:54;;;;;;;3.47;1.50;;;0.00;99.90;;;;;;5038181;28;20218;-75
2022/01/21 04:25:44;;;;;;;6.20;1.97;;;-0.10;99.90;;;;;;5040619;28;20343;-74
2022/01/21 04:28:32;;;;;;;5.50;1.60;;;-0.10;99.90;;;;;;5054881;28;20236;-75
2022/01/21 04:31:24;;;;;;;4.47;1.40;;;0.00;99.90;;;;;;5040262;28;20223;-77
2022/01/21 04:34:13;;;;;;;5.37;1.90;;;0.00;99.90;;;;;;5040756;28;20314;-75
2022/01/21 04:37:02;;;;;;;3.63;1.63;;;0.10;99.90;;;;;;5041802;28;20225;-75
2022/01/21 04:40:08;;;;;;;5.67;1.67;;;0.20;99.90;;;;;;5039424;28;20253;-75
2022/01/21 04:49:14;;;;;;;3.87;1.37;;;0.20;99.90;;;;;;5039039;28;20280;-74
2022/01/21 04:52:04;;;;;;;5.53;2.10;;;0.20;99.90;;;;;;5040584;28;20304;-75
2022/01/21 04:55:20;;;;;;;5.83;1.70;;;0.20;99.90;;;;;;5042471;28;20231;-74
2022/01/21 04:58:13;;;;;;;5.73;1.83;;;0.10;99.90;;;;;;5027384;28;20238;-74
2022/01/21 05:01:07;;;;;;;5.23;1.50;;;0.30;99.90;;;;;;5043083;28;21197;-74
2022/01/21 05:03:56;;;;;;;6.43;2.00;;;0.20;99.90;;;;;;5039387;28;20220;-73
2022/01/21 05:06:45;;;;;;;4.20;1.83;;;0.30;99.90;;;;;;5040380;28;20312;-75
2022/01/21 05:09:35;;;;;;;5.20;1.63;;;0.20;99.90;;;;;;5040328;28;20236;-71
2022/01/21 05:12:27;;;;;;;3.23;1.40;;;0.20;99.90;;;;;;5043502;28;20239;-74
2022/01/21 05:15:22;;;;;;;6.40;1.70;;;0.30;99.90;;;;;;5042334;28;20305;-74
2022/01/21 05:18:11;;;;;;;6.27;1.63;;;0.30;99.90;;;;;;5039234;28;20223;-74
2022/01/21 05:21:09;;;;;;;5.43;1.77;;;0.20;99.90;;;;;;5038060;28;20253;-75
2022/01/21 05:24:20;;;;;;;7.70;1.80;;;0.20;99.90;;;;;;5049168;28;20223;-76
2022/01/21 05:27:14;;;;;;;4.83;1.87;;;0.30;99.90;;;;;;5040021;28;20680;-75
2022/01/21 05:30:09;;;;;;;3.87;1.70;;;0.30;99.90;;;;;;5038633;28;20250;-74
2022/01/21 05:33:17;;;;;;;5.20;1.60;;;0.30;99.90;;;;;;5053871;28;20222;-75
2022/01/21 05:36:26;;;;;;;6.03;1.70;;;0.30;99.90;;;;;;5059486;28;20279;-75
2022/01/21 05:39:35;;;;;;;4.77;1.63;;;0.40;99.90;;;;;;5050214;28;20305;-75
2022/01/21 05:42:46;;;;;;;6.97;1.87;;;0.30;99.90;;;;;;5053137;28;20220;-74
2022/01/21 05:49:16;;;;;;;3.73;1.57;;;0.40;99.90;;;;;;5052739;28;20298;-74
2022/01/21 05:52:33;;;;;;;5.33;1.80;;;0.30;99.90;;;;;;5052150;28;20752;-75
2022/01/21 05:55:48;;;;;;;10.13;2.10;;;0.30;99.90;;;;;;5038794;28;20278;-75
2022/01/21 05:58:51;;;;;;;9.90;2.10;;;0.20;99.90;;;;;;5050411;28;20217;-75
2022/01/21 06:01:45;;;;;;;7.37;1.83;;;0.30;99.90;;;;;;5046794;28;20809;-74
2022/01/21 06:04:34;;;;;;;7.13;2.10;;;0.30;99.90;;;;;;5040605;28;20220;-74
2022/01/21 06:07:23;;;;;;;9.10;2.03;;;0.40;99.90;;;;;;5043538;28;21268;-76
2022/01/21 06:10:12;;;;;;;7.87;2.13;;;0.30;99.90;;;;;;5040921;28;20224;-75
2022/01/21 06:13:02;;;;;;;6.47;2.27;;;0.30;99.90;;;;;;5058806;28;20313;-75
2022/01/21 06:15:50;;;;;;;8.90;2.23;;;0.20;99.90;;;;;;5042133;28;20403;-75
2022/01/21 06:18:40;;;;;;;4.63;2.30;;;0.20;99.90;;;;;;5057388;28;20307;-73
2022/01/21 06:21:29;;;;;;;6.20;2.00;;;0.40;99.90;;;;;;5044632;28;20684;-74
2022/01/21 06:24:17;;;;;;;6.00;2.17;;;0.40;99.90;;;;;;5045614;28;20236;-76
2022/01/21 06:27:06;;;;;;;7.43;2.40;;;0.30;99.90;;;;;;5057506;28;20743;-75
2022/01/21 06:29:55;;;;;;;6.40;2.20;;;0.40;99.90;;;;;;5056292;28;20255;-77
2022/01/21 06:32:44;;;;;;;8.67;2.20;;;0.50;99.90;;;;;;5054935;28;20231;-75
2022/01/21 06:35:34;;;;;;;6.90;2.40;;;0.50;99.90;;;;;;5058555;28;20223;-76
2022/01/21 06:38:23;;;;;;;9.67;3.13;;;0.40;99.90;;;;;;5041715;28;21202;-75
2022/01/21 06:41:12;;;;;;;5.60;2.40;;;0.50;99.90;;;;;;5059013;28;20833;-76
2022/01/21 06:44:02;;;;;;;5.00;3.07;;;0.40;99.90;;;;;;5056093;28;20232;-76
2022/01/21 06:46:50;;;;;;;6.30;2.50;;;0.50;99.90;;;;;;5057783;28;20227;-75
2022/01/21 06:49:39;;;;;;;7.93;2.40;;;0.50;99.90;;;;;;5055625;28;20232;-75
2022/01/21 06:52:30;;;;;;;5.77;2.43;;;0.60;99.90;;;;;;5061649;28;20222;-73
2022/01/21 06:55:19;;;;;;;11.20;2.50;;;0.60;99.90;;;;;;5044707;28;20254;-74
2022/01/21 06:58:08;;;;;;;4.57;2.27;;;0.60;99.90;;;;;;5050733;28;20591;-73
2022/01/21 07:00:56;;;;;;;7.17;2.50;;;0.60;99.90;;;;;;5048384;28;20311;-73
2022/01/21 07:03:45;;;;;;;11.60;2.60;;;0.60;99.90;;;;;;5061299;28;20242;-73
2022/01/21 07:06:34;;;;;;;6.63;2.93;;;0.50;99.90;;;;;;5060285;28;20228;-74
2022/01/21 07:09:24;;;;;;;8.20;2.57;;;0.60;99.90;;;;;;5047697;28;20520;-74
2022/01/21 07:12:13;;;;;;;5.57;2.53;;;0.60;99.90;;;;;;5044340;28;20227;-74
2022/01/21 07:15:02;;;;;;;5.10;2.57;;;0.60;99.90;;;;;;5063573;28;20224;-74
2022/01/21 07:17:52;;;;;;;7.07;2.73;;;0.60;99.90;;;;;;5050024;28;20428;-73
2022/01/21 07:20:41;;;;;;;8.00;3.30;;;0.70;99.90;;;;;;5063536;28;20584;-73
2022/01/21 07:23:30;;;;;;;11.63;3.27;;;0.60;99.90;;;;;;5064912;28;20227;-73
2022/01/21 07:26:20;;;;;;;9.93;3.50;;;0.50;99.90;;;;;;5058659;28;20232;-74
2022/01/21 07:29:09;;;;;;;9.10;3.03;;;0.50;99.90;;;;;;5052326;28;20981;-74
2022/01/21 07:31:57;;;;;;;6.23;2.87;;;0.50;99.90;;;;;;5045378;28;20231;-74
2022/01/21 07:34:46;;;;;;;7.87;2.90;;;0.50;99.90;;;;;;5046037;28;20227;-74
2022/01/21 07:37:35;;;;;;;7.70;2.53;;;0.50;99.90;;;;;;5063093;28;20281;-74
2022/01/21 07:40:27;;;;;;;9.17;2.77;;;0.50;99.90;;;;;;5044966;28;20239;-74
2022/01/21 07:43:17;;;;;;;5.57;2.53;;;0.50;99.90;;;;;;5044589;28;20760;-75
2022/01/21 07:46:06;;;;;;;8.67;2.47;;;0.50;99.90;;;;;;5044954;28;20230;-76
2022/01/21 07:48:56;;;;;;;5.97;2.40;;;0.60;99.90;;;;;;5050038;28;20301;-79
2022/01/21 07:51:45;;;;;;;5.40;2.13;;;0.50;99.90;;;;;;5050746;28;20707;-79
2022/01/21 07:54:34;;;;;;;7.83;2.30;;;0.60;99.90;;;;;;5047678;28;20224;-80
2022/01/21 07:57:23;;;;;;;7.07;2.87;;;0.60;99.90;;;;;;5045654;28;20420;-77
2022/01/21 08:00:14;;;;;;;6.40;2.70;;;0.60;99.90;;;;;;5045607;28;20223;-77
2022/01/21 08:03:04;;;;;;;7.40;2.63;;;0.50;99.90;;;;;;5051927;28;20720;-79
2022/01/21 08:05:53;;;;;;;7.87;2.83;;;0.60;99.90;;;;;;5045747;28;20699;-77
2022/01/21 08:08:42;;;;;;;10.37;2.80;;;0.70;99.90;;;;;;5045093;28;20228;-78
2022/01/21 08:11:31;;;;;;;9.10;2.70;;;0.70;99.90;;;;;;5055380;28;20223;-77
2022/01/21 08:14:19;;;;;;;8.37;2.70;;;0.70;99.90;;;;;;5037087;28;20604;-74
2022/01/21 08:17:09;;;;;;;8.80;2.40;;;0.80;99.90;;;;;;5041899;28;20509;-75
2022/01/21 08:19:59;;;;;;;3.83;2.30;;;0.80;99.90;;;;;;5042852;28;20216;-76
2022/01/21 08:22:47;;;;;;;8.77;3.10;;;0.80;99.90;;;;;;5053542;28;20224;-76
2022/01/21 08:25:36;;;;;;;11.00;2.70;;;0.90;99.90;;;;;;5044974;28;20223;-80
2022/01/21 08:28:25;;;;;;;7.83;2.73;;;1.00;99.90;;;;;;5044615;28;20228;-76
2022/01/21 08:31:14;;;;;;;5.27;2.20;;;1.30;99.90;;;;;;5044990;28;20220;-77
2022/01/21 08:34:05;;;;;;;4.63;2.53;;;1.40;99.90;;;;;;5062619;28;20228;-77
2022/01/21 08:36:54;;;;;;;6.30;2.40;;;1.50;99.90;;;;;;5037414;28;20221;-76
2022/01/21 08:39:43;;;;;;;7.10;2.60;;;1.60;99.90;;;;;;5042855;28;20231;-76
2022/01/21 08:42:32;;;;;;;7.17;2.73;;;1.70;99.90;;;;;;5030673;28;20245;-76
2022/01/21 08:45:21;;;;;;;4.83;2.40;;;1.80;99.90;;;;;;5058692;28;20212;-76
2022/01/21 08:48:11;;;;;;;10.20;3.00;;;2.00;99.90;;;;;;5060313;28;20220;-74
2022/01/21 08:51:07;;;;;;;6.13;2.77;;;1.90;99.90;;;;;;5048702;28;20228;-74
2022/01/21 08:53:56;;;;;;;7.50;2.73;;;1.90;99.90;;;;;;5062186;28;20631;-72
2022/01/21 08:56:46;;;;;;;7.90;2.80;;;1.90;99.90;;;;;;5048593;28;20223;-74
2022/01/21 08:59:34;;;;;;;7.33;2.83;;;1.80;99.90;;;;;;5049395;28;20228;-76
2022/01/21 09:02:23;;;;;;;4.73;2.30;;;1.80;99.90;;;;;;5048681;28;20224;-76
2022/01/21 09:05:12;;;;;;;7.83;2.80;;;1.80;99.90;;;;;;5045239;28;20227;-75
2022/01/21 09:08:03;;;;;;;4.33;2.03;;;1.80;99.90;;;;;;5046347;28;20223;-75
2022/01/21 09:10:51;;;;;;;6.87;2.40;;;1.80;99.90;;;;;;5055390;28;20290;-74
2022/01/21 09:13:41;;;;;;;5.50;2.40;;;1.80;99.90;;;;;;5047688;28;20220;-71
2022/01/21 09:16:30;;;;;;;6.77;2.97;;;1.80;99.90;;;;;;5064454;28;20220;-74
2022/01/21 09:19:19;;;;;;;8.83;3.27;;;1.90;99.90;;;;;;5045348;28;20239;-75
2022/01/21 09:22:08;;;;;;;9.07;3.27;;;1.90;99.90;;;;;;5063882;28;20216;-75
2022/01/21 09:24:58;;;;;;;9.33;2.87;;;1.80;99.90;;;;;;5043196;28;20335;-77
2022/01/21 09:27:46;;;;;;;7.07;3.43;;;1.90;99.90;;;;;;5064424;28;20221;-75
2022/01/21 09:30:35;;;;;;;4.67;1.97;;;2.00;99.90;;;;;;5062253;28;20224;-77
2022/01/21 09:33:24;;;;;;;6.73;3.03;;;1.70;99.90;;;;;;5045982;28;20596;-77
2022/01/21 09:36:13;;;;;;;11.87;3.23;;;1.90;99.90;;;;;;5049491;28;20224;-77
2022/01/21 09:39:03;;;;;;;8.53;3.00;;;1.80;99.90;;;;;;5039505;28;20229;-77
2022/01/21 09:41:58;;;;;;;5.80;2.70;;;1.90;99.90;;;;;;5043906;28;20220;-77
2022/01/21 09:44:49;;;;;;;10.93;3.50;;;2.00;99.90;;;;;;5058614;28;20310;-78
2022/01/21 09:47:46;;;;;;;8.27;3.30;;;2.00;99.90;;;;;;5047656;28;20308;-77
2022/01/21 09:50:34;;;;;;;9.03;3.60;;;1.90;99.90;;;;;;5033956;28;20351;-77
2022/01/21 09:53:31;;;;;;;9.00;3.37;;;2.10;99.90;;;;;;5054486;28;20234;-77
2022/01/21 09:56:20;;;;;;;9.63;3.10;;;1.90;99.90;;;;;;5055980;28;20232;-76
2022/01/21 09:59:11;;;;;;;7.07;2.80;;;1.90;99.90;;;;;;5050743;28;20216;-76
2022/01/21 10:02:03;;;;;;;7.20;3.07;;;1.80;99.90;;;;;;5062458;28;20212;-76
2022/01/21 10:04:52;;;;;;;4.80;2.60;;;1.80;99.90;;;;;;5053905;28;20243;-76
2022/01/21 10:07:43;;;;;;;8.93;3.10;;;2.00;99.90;;;;;;5065436;28;20228;-75
2022/01/21 10:10:32;;;;;;;6.53;2.67;;;1.90;99.90;;;;;;5061526;28;20235;-73
2022/01/21 10:13:22;;;;;;;6.57;2.70;;;1.80;99.90;;;;;;5065399;28;20248;-75
2022/01/21 10:16:12;;;;;;;6.20;2.60;;;1.70;99.90;;;;;;5066924;28;20228;-79
2022/01/21 10:19:04;;;;;;;8.40;2.13;;;1.60;99.90;;;;;;5050364;28;20259;-77
2022/01/21 10:22:01;;;;;;;6.43;2.40;;;1.50;99.90;;;;;;5063473;28;20354;-80
2022/01/21 10:24:58;;;;;;;5.60;2.43;;;1.70;99.90;;;;;;5055434;28;20559;-79
2022/01/21 10:27:46;;;;;;;5.07;1.97;;;1.60;99.90;;;;;;5044468;28;20511;-78
2022/01/21 10:30:38;;;;;;;9.07;2.50;;;1.70;99.90;;;;;;5063283;28;20216;-75
2022/01/21 10:33:28;;;;;;;6.60;2.13;;;1.70;99.90;;;;;;5050334;28;20239;-78
2022/01/21 10:36:24;;;;;;;4.63;2.53;;;1.70;99.90;;;;;;5048442;28;20231;-75
2022/01/21 10:39:18;;;;;;;7.03;2.50;;;1.80;99.90;;;;;;5062258;28;20224;-74
2022/01/21 10:42:21;;;;;;;6.63;2.83;;;1.80;99.90;;;;;;5051627;28;20231;-73
2022/01/21 10:45:11;;;;;;;5.73;2.60;;;1.90;99.90;;;;;;5039483;28;21082;-76
2022/01/21 10:48:02;;;;;;;8.90;2.77;;;1.80;99.90;;;;;;5043514;28;20216;-78
2022/01/21 10:51:17;;;;;;;9.10;2.60;;;1.70;99.90;;;;;;5061390;28;20216;-76
2022/01/21 10:54:15;;;;;;;9.33;2.87;;;1.80;99.90;;;;;;5057535;28;20777;-76
2022/01/21 10:57:10;;;;;;;10.17;3.23;;;1.90;99.90;;;;;;5044418;28;20255;-76
2022/01/21 11:00:07;;;;;;;4.97;2.53;;;1.80;99.90;;;;;;5047851;28;20227;-75
2022/01/21 11:02:55;;;;;;;5.53;2.50;;;1.90;99.90;;;;;;5046615;28;20228;-73
2022/01/21 11:05:47;;;;;;;12.30;2.90;;;1.90;99.90;;;;;;5055679;28;20222;-75
2022/01/21 11:08:37;;;;;;;5.77;2.67;;;2.00;99.90;;;;;;5046859;28;20226;-73
2022/01/21 11:11:26;;;;;;;5.17;2.40;;;2.00;99.90;;;;;;5058438;28;20228;-75
2022/01/21 11:14:17;;;;;;;5.47;2.57;;;1.90;99.90;;;;;;5048776;28;20231;-74
2022/01/21 11:17:14;;;;;;;9.67;2.67;;;2.10;99.90;;;;;;5046414;28;20239;-73
2022/01/21 11:20:16;;;;;;;10.50;3.90;;;2.10;99.90;;;;;;5044027;28;20640;-77
2022/01/21 11:23:05;;;;;;;8.43;3.37;;;2.00;99.90;;;;;;5041887;28;20220;-75
2022/01/21 11:25:58;;;;;;;8.93;2.63;;;2.10;99.90;;;;;;5059969;28;20705;-75
2022/01/21 11:28:49;;;;;;;6.80;2.80;;;2.10;99.90;;;;;;5039893;28;20581;-74
2022/01/21 11:31:38;;;;;;;4.37;2.50;;;2.20;99.90;;;;;;5059736;28;20869;-74
2022/01/21 11:34:30;;;;;;;6.83;2.70;;;2.30;99.90;;;;;;5041183;28;20704;-73
2022/01/21 11:37:19;;;;;;;7.93;2.93;;;2.30;99.90;;;;;;5040309;28;20224;-73
2022/01/21 11:40:08;;;;;;;8.30;2.67;;;2.50;99.90;;;;;;5056831;28;20231;-76
2022/01/21 11:42:59;;;;;;;5.93;2.47;;;2.60;99.90;;;;;;5041856;28;20217;-73
2022/01/21 11:46:38;;;;;;;12.80;2.70;;;2.50;99.90;;;;;;5044300;28;20299;-74
2022/01/21 11:49:27;;;;;;;7.00;2.50;;;2.50;99.90;;;;;;5055762;28;20260;-74
2022/01/21 11:52:19;;;;;;;7.53;2.77;;;2.50;99.90;;;;;;5061530;28;20592;-74
2022/01/21 11:55:08;;;;;;;9.00;2.97;;;2.60;99.90;;;;;;5059235;28;20217;-74
2022/01/21 11:58:13;;;;;;;8.57;2.77;;;2.40;99.90;;;;;;5046779;28;20251;-74
2022/01/21 12:01:06;;;;;;;5.67;3.10;;;2.40;99.90;;;;;;5044511;28;20680;-74
2022/01/21 12:03:56;;;;;;;9.70;2.83;;;2.30;99.90;;;;;;5047682;28;20308;-74
2022/01/21 12:06:45;;;;;;;7.83;3.10;;;2.40;99.90;;;;;;5045827;28;20229;-73
2022/01/21 12:09:54;;;;;;;12.70;3.27;;;2.40;99.90;;;;;;5045988;28;20220;-74
2022/01/21 12:13:10;;;;;;;6.13;3.10;;;2.30;99.90;;;;;;5043846;28;20758;-74
2022/01/21 12:19:27;;;;;;;8.17;3.00;;;2.30;99.90;;;;;;5056290;28;20235;-74
2022/01/21 12:22:18;;;;;;;5.83;2.60;;;2.30;99.90;;;;;;5044261;28;20224;-73
2022/01/21 12:25:09;;;;;;;9.37;2.70;;;2.20;99.90;;;;;;5059243;28;20223;-74
2022/01/21 12:28:16;;;;;;;8.33;3.03;;;2.30;99.90;;;;;;5044676;28;20216;-75
2022/01/21 12:31:07;;;;;;;6.97;2.90;;;2.40;99.90;;;;;;5043374;28;20220;-74
2022/01/21 12:34:16;;;;;;;9.80;2.57;;;2.20;99.90;;;;;;5059598;28;20243;-75
2022/01/21 12:37:09;;;;;;;6.30;2.10;;;2.10;99.90;;;;;;5041748;28;20765;-75
2022/01/21 12:39:58;;;;;;;8.77;2.30;;;2.10;99.90;;;;;;5059590;28;20229;-74
2022/01/21 12:42:47;;;;;;;6.67;2.20;;;2.10;99.90;;;;;;5044177;28;20223;-73
2022/01/21 12:45:36;;;;;;;8.97;2.50;;;2.10;99.90;;;;;;5043618;28;20251;-73
2022/01/21 12:48:34;;;;;;;6.33;2.53;;;2.10;99.90;;;;;;5053980;28;20220;-75
2022/01/21 12:52:12;;;;;;;7.27;2.70;;;2.20;99.90;;;;;;5058562;28;20216;-75
2022/01/21 12:58:07;;;;;;;7.07;2.07;;;2.10;99.90;;;;;;5038220;28;20267;-75
2022/01/21 13:01:00;;;;;;;6.53;2.20;;;2.00;99.90;;;;;;5042193;28;20212;-74
2022/01/21 13:03:55;;;;;;;7.57;2.10;;;2.10;99.90;;;;;;5057338;28;20263;-75
2022/01/21 13:06:57;;;;;;;3.87;2.10;;;2.10;99.90;;;;;;5059657;28;20216;-74
2022/01/21 13:10:14;;;;;;;5.37;2.53;;;2.10;99.90;;;;;;5042314;28;20224;-74
2022/01/21 13:13:22;;;;;;;7.97;2.40;;;2.10;99.90;;;;;;5045424;28;20709;-73
2022/01/21 13:16:23;;;;;;;6.40;2.60;;;2.10;99.90;;;;;;5055628;28;20223;-74
2022/01/21 13:19:13;;;;;;;5.20;2.50;;;2.10;99.90;;;;;;5064109;28;20224;-73
2022/01/21 13:22:01;;;;;;;8.60;3.27;;;2.20;99.90;;;;;;5045865;28;20232;-77
2022/01/21 13:25:03;;;;;;;6.40;2.23;;;2.00;99.90;;;;;;5043527;28;20220;-73
2022/01/21 13:27:54;;;;;;;11.00;4.60;;;2.00;99.90;;;;;;5043990;28;20583;-75
2022/01/21 13:30:43;;;;;;;8.43;2.30;;;1.90;99.90;;;;;;5051622;28;20224;-72
2022/01/21 13:33:32;;;;;;;14.60;3.33;;;1.90;99.90;;;;;;5050277;28;20212;-71
2022/01/21 13:36:42;;;;;;;8.17;2.80;;;2.00;99.90;;;;;;5063082;28;20234;-71
2022/01/21 13:39:34;;;;;;;9.07;2.53;;;1.90;99.90;;;;;;5049790;28;20219;-74
2022/01/21 13:42:25;;;;;;;9.07;3.03;;;1.90;99.90;;;;;;5062963;28;20274;-73
2022/01/21 13:45:14;;;;;;;10.03;2.97;;;1.70;99.90;;;;;;5050659;28;20236;-74
2022/01/21 13:48:05;;;;;;;7.77;3.20;;;1.80;99.90;;;;;;5046759;28;20228;-73
2022/01/21 13:50:55;;;;;;;10.83;2.67;;;1.90;99.90;;;;;;5065013;28;20216;-75
2022/01/21 13:53:47;;;;;;;8.90;2.77;;;1.90;99.90;;;;;;5052110;28;20232;-70
2022/01/21 13:56:35;;;;;;;6.03;2.53;;;1.80;99.90;;;;;;5053160;28;20229;-74
2022/01/21 13:59:24;;;;;;;5.70;2.40;;;1.70;99.90;;;;;;5065114;28;20225;-73
2022/01/21 14:02:15;;;;;;;6.97;2.70;;;1.70;99.90;;;;;;5066387;28;20258;-82
2022/01/21 14:05:05;;;;;;;8.57;2.90;;;1.70;99.90;;;;;;5063945;28;20590;-82
2022/01/21 14:07:53;;;;;;;6.77;2.90;;;1.70;99.90;;;;;;5050217;28;20231;-83
2022/01/21 14:10:44;;;;;;;9.43;3.00;;;1.70;99.90;;;;;;5047699;28;20232;-73
2022/01/21 14:13:35;;;;;;;5.93;2.73;;;1.80;99.90;;;;;;5060370;28;20310;-73
2022/01/21 14:16:27;;;;;;;6.57;3.30;;;1.80;99.90;;;;;;5063127;28;20251;-73
2022/01/21 14:19:18;;;;;;;8.57;3.10;;;1.80;99.90;;;;;;5063827;28;20683;-78
2022/01/21 14:22:09;;;;;;;10.77;2.67;;;1.60;99.90;;;;;;5065451;28;20228;-87
2022/01/21 14:24:58;;;;;;;5.90;3.20;;;1.70;99.90;;;;;;5066279;28;20220;-87
2022/01/21 14:27:49;;;;;;;6.67;3.00;;;1.70;99.90;;;;;;5068674;28;20263;-85
2022/01/21 14:30:41;;;;;;;9.53;2.97;;;1.70;99.90;;;;;;5049940;28;20235;-75
2022/01/21 14:33:40;;;;;;;8.50;3.50;;;1.80;99.90;;;;;;5061011;28;20979;-76
2022/01/21 14:36:29;;;;;;;10.37;3.23;;;1.80;99.90;;;;;;5053046;28;20233;-75
2022/01/21 14:39:22;;;;;;;13.40;3.77;;;1.70;99.90;;;;;;5040909;28;20348;-74
2022/01/21 14:42:12;;;;;;;10.97;3.63;;;1.80;99.90;;;;;;5045275;28;20771;-74
2022/01/21 14:45:12;;;;;;;10.77;3.67;;;1.80;99.90;;;;;;5061279;28;20224;-75
2022/01/21 14:48:13;;;;;;;9.30;3.40;;;1.70;99.90;;;;;;5045770;28;20600;-75
2022/01/21 14:51:10;;;;;;;8.60;3.60;;;1.60;99.90;;;;;;5059016;28;20216;-76
2022/01/21 14:54:14;;;;;;;12.20;4.63;;;1.70;99.90;;;;;;5039778;28;20326;-75
2022/01/21 14:57:06;;;;;;;11.53;3.63;;;1.70;99.90;;;;;;5042333;28;20240;-75
2022/01/21 14:59:57;;;;;;;10.83;3.50;;;1.70;99.90;;;;;;5062981;28;20220;-75
2022/01/21 15:02:47;;;;;;;6.37;2.80;;;1.60;99.90;;;;;;5055328;28;20213;-76
2022/01/21 15:05:37;;;;;;;8.93;4.33;;;1.50;99.90;;;;;;5048110;28;20219;-76
2022/01/21 15:08:33;;;;;;;9.83;3.40;;;1.60;99.90;;;;;;5045715;28;20248;-75
2022/01/21 15:11:53;;;;;;;11.30;3.50;;;1.50;99.90;;;;;;5050466;28;20633;-78
2022/01/21 15:14:45;;;;;;;6.93;2.90;;;1.50;99.90;;;;;;5047015;28;20350;-75
2022/01/21 15:17:33;;;;;;;9.30;3.07;;;1.50;99.90;;;;;;5043055;28;20315;-75
2022/01/21 15:20:25;;;;;;;8.57;2.90;;;1.50;99.90;;;;;;5046628;28;20228;-76
2022/01/21 15:23:14;;;;;;;8.17;3.10;;;1.60;99.90;;;;;;5042156;28;20369;-76
2022/01/21 15:26:04;;;;;;;6.90;2.80;;;1.50;99.90;;;;;;5045951;28;20771;-76
2022/01/21 15:29:05;;;;;;;7.17;2.90;;;1.50;99.90;;;;;;5042533;28;20262;-77
2022/01/21 15:31:54;;;;;;;8.20;2.97;;;1.50;99.90;;;;;;5046357;28;20235;-76
2022/01/21 15:34:43;;;;;;;7.63;2.60;;;1.60;99.90;;;;;;5061392;28;20707;-78
2022/01/21 15:37:33;;;;;;;9.85;3.00;;;1.60;99.90;;;;;;5059713;28;22575;-75
2022/01/21 15:40:23;;;;;;;7.53;2.80;;;1.60;99.90;;;;;;5044834;28;20227;-76
2022/01/21 15:43:14;;;;;;;8.87;3.17;;;1.60;99.90;;;;;;5058689;28;20841;-76
2022/01/21 15:46:03;;;;;;;6.90;2.53;;;1.60;99.90;;;;;;5049796;28;20217;-76
2022/01/21 15:48:52;;;;;;;10.73;2.63;;;1.50;99.90;;;;;;5049151;28;20228;-77
2022/01/21 15:51:41;;;;;;;8.50;2.80;;;1.60;99.90;;;;;;5059573;28;20311;-75
2022/01/21 15:54:31;;;;;;;8.23;2.67;;;1.60;99.90;;;;;;5045237;28;20236;-76